createdAt,value
2023-04-13T00:01:01.691Z,23.13
2023-04-13T00:03:33.495Z,23.12
2023-04-13T00:06:03.124Z,23.13
2023-04-13T00:08:31.877Z,23.11
2023-04-13T00:11:00.043Z,23.12
2023-04-13T00:13:28.035Z,23.13
2023-04-13T00:15:57.057Z,23.12
2023-04-13T00:18:26.437Z,23.12
2023-04-13T00:20:54.435Z,23.11
2023-04-13T00:23:22.445Z,23.11
2023-04-13T00:25:51.264Z,23.13
2023-04-13T00:28:19.509Z,23.13
2023-04-13T00:30:47.556Z,23.14
2023-04-13T00:33:15.982Z,23.14
2023-04-13T00:35:45.643Z,23.13
2023-04-13T00:38:13.874Z,23.13
2023-04-13T00:40:41.807Z,23.14
2023-04-13T00:43:09.831Z,23.13
2023-04-13T00:45:39.182Z,23.13
2023-04-13T00:48:08.957Z,23.13
2023-04-13T00:50:36.982Z,23.13
2023-04-13T00:53:09.672Z,23.14
2023-04-13T00:55:39.561Z,23.12
2023-04-13T00:58:07.969Z,23.12
2023-04-13T01:00:39.229Z,23.11
2023-04-13T01:03:07.987Z,23.12
2023-04-13T01:05:38.321Z,23.12
2023-04-13T01:08:11.437Z,23.11
2023-04-13T01:10:40.929Z,23.11
2023-04-13T01:13:12.259Z,23.12
2023-04-13T01:15:46.311Z,23.11
2023-04-13T01:18:15.696Z,23.10
2023-04-13T01:20:46.496Z,23.10
2023-04-13T01:23:24.719Z,23.11
2023-04-13T01:25:58.027Z,23.10
2023-04-13T01:28:30.158Z,23.12
2023-04-13T01:30:58.731Z,23.11
2023-04-13T01:33:30.533Z,23.12
2023-04-13T01:36:00.771Z,23.11
2023-04-13T01:38:28.711Z,23.12
2023-04-13T01:40:57.321Z,23.12
2023-04-13T01:43:25.304Z,23.13
2023-04-13T01:46:00.940Z,23.13
2023-04-13T01:48:30.909Z,23.13
2023-04-13T01:50:59.978Z,23.12
2023-04-13T01:53:30.263Z,23.11
2023-04-13T01:55:58.332Z,23.12
2023-04-13T01:58:28.164Z,23.12
2023-04-13T02:00:57.816Z,23.11
2023-04-13T02:03:25.772Z,23.10
2023-04-13T02:05:53.693Z,23.11
2023-04-13T02:08:21.864Z,23.11
2023-04-13T02:10:50.195Z,23.12
2023-04-13T02:13:18.099Z,23.10
2023-04-13T02:15:46.244Z,23.10
2023-04-13T02:18:15.621Z,23.12
2023-04-13T02:20:46.134Z,23.11
2023-04-13T02:23:15.339Z,23.11
2023-04-13T02:25:47.596Z,23.10
2023-04-13T02:28:17.714Z,23.09
2023-04-13T02:30:46.154Z,23.09
2023-04-13T02:33:15.611Z,23.09
2023-04-13T02:35:43.769Z,23.11
2023-04-13T02:38:11.814Z,23.08
2023-04-13T02:40:39.856Z,23.12
2023-04-13T02:43:07.843Z,23.11
2023-04-13T02:45:35.782Z,23.11
2023-04-13T02:48:04.927Z,23.10
2023-04-13T02:50:34.300Z,23.11
2023-04-13T02:53:02.329Z,23.10
2023-04-13T02:55:30.276Z,23.10
2023-04-13T02:57:59.622Z,23.10
2023-04-13T03:00:28.727Z,23.09
2023-04-13T03:02:56.812Z,23.09
2023-04-13T03:05:25.120Z,23.09
2023-04-13T03:07:57.079Z,23.09
2023-04-13T03:10:25.117Z,23.08
2023-04-13T03:12:53.639Z,23.10
2023-04-13T03:15:21.924Z,23.07
2023-04-13T03:17:49.967Z,23.07
2023-04-13T03:20:20.962Z,23.06
2023-04-13T03:22:48.887Z,23.04
2023-04-13T03:25:18.336Z,23.06
2023-04-13T03:27:46.410Z,23.03
2023-04-13T03:30:14.704Z,23.04
2023-04-13T03:32:52.477Z,23.06
2023-04-13T03:35:20.571Z,23.07
2023-04-13T03:37:48.618Z,23.07
2023-04-13T03:40:17.977Z,23.04
2023-04-13T03:42:46.017Z,23.06
2023-04-13T03:45:13.918Z,23.07
2023-04-13T03:47:41.950Z,23.07
2023-04-13T03:50:10.911Z,23.07
2023-04-13T03:52:38.813Z,23.05
2023-04-13T03:55:07.182Z,23.04
2023-04-13T03:57:37.079Z,23.04
2023-04-13T04:00:07.334Z,23.07
2023-04-13T04:02:35.432Z,23.06
2023-04-13T04:05:03.640Z,23.07
2023-04-13T04:07:31.688Z,23.06
2023-04-13T04:10:12.268Z,23.03
2023-04-13T04:12:41.744Z,23.03
2023-04-13T04:15:10.480Z,23.02
2023-04-13T04:17:40.002Z,23.01
2023-04-13T04:20:10.327Z,23.01
2023-04-13T04:22:38.484Z,23.01
2023-04-13T04:25:07.247Z,23.01
2023-04-13T04:27:38.489Z,23.01
2023-04-13T04:30:10.881Z,23.03
2023-04-13T04:32:40.653Z,23.03
2023-04-13T04:35:09.855Z,23.03
2023-04-13T04:37:38.989Z,23.09
2023-04-13T04:40:09.650Z,23.11
2023-04-13T04:42:38.495Z,23.13
2023-04-13T04:45:10.568Z,23.13
2023-04-13T04:47:42.197Z,23.13
2023-04-13T04:50:11.206Z,23.16
2023-04-13T04:52:39.304Z,23.15
2023-04-13T04:55:13.421Z,23.13
2023-04-13T04:57:41.442Z,23.12
2023-04-13T05:00:15.537Z,23.11
2023-04-13T05:02:44.411Z,23.11
2023-04-13T05:05:12.915Z,23.10
2023-04-13T05:07:40.833Z,23.11
2023-04-13T05:10:10.243Z,23.11
2023-04-13T05:12:38.323Z,23.10
2023-04-13T05:15:07.739Z,23.11
2023-04-13T05:17:37.429Z,23.12
2023-04-13T05:20:06.958Z,23.10
2023-04-13T05:22:34.977Z,23.09
2023-04-13T05:25:02.987Z,23.10
2023-04-13T05:29:59.057Z,23.11
2023-04-13T05:32:27.131Z,23.12
2023-04-13T05:34:56.505Z,23.13
2023-04-13T05:37:24.489Z,23.14
2023-04-13T05:39:52.434Z,23.14
2023-04-13T05:42:20.571Z,23.17
2023-04-13T05:44:48.492Z,23.17
2023-04-13T05:47:17.090Z,23.18
2023-04-13T05:49:45.040Z,23.18
2023-04-13T05:52:14.273Z,23.19
2023-04-13T05:54:42.249Z,23.18
2023-04-13T05:57:10.215Z,23.20
2023-04-13T05:59:38.471Z,23.22
2023-04-13T06:02:06.506Z,23.24
2023-04-13T06:04:35.027Z,23.27
2023-04-13T06:07:03.214Z,23.26
2023-04-13T06:09:32.625Z,23.26
2023-04-13T06:12:00.637Z,23.29
2023-04-13T06:14:28.644Z,23.32
2023-04-13T06:16:56.688Z,23.33
2023-04-13T06:19:26.343Z,23.32
2023-04-13T06:21:56.324Z,23.35
2023-04-13T06:24:24.256Z,23.35
2023-04-13T06:26:53.622Z,23.36
2023-04-13T06:29:21.666Z,23.38
2023-04-13T06:31:49.540Z,23.39
2023-04-13T06:34:17.883Z,23.41
2023-04-13T06:36:45.829Z,23.42
2023-04-13T06:39:13.827Z,23.44
2023-04-13T06:41:41.767Z,23.45
2023-04-13T06:44:11.367Z,23.47
2023-04-13T06:46:39.408Z,23.49
2023-04-13T06:49:07.517Z,23.51
2023-04-13T06:51:35.511Z,23.52
2023-04-13T06:54:03.850Z,23.53
2023-04-13T06:56:31.886Z,23.54
2023-04-13T06:59:02.632Z,23.53
2023-04-13T07:01:32.611Z,23.52
2023-04-13T07:04:02.517Z,23.51
2023-04-13T07:06:32.244Z,23.51
2023-04-13T07:09:00.765Z,23.50
2023-04-13T07:11:28.894Z,23.49
2023-04-13T07:13:57.032Z,23.49
2023-04-13T07:16:25.059Z,23.51
2023-04-13T07:18:54.328Z,23.49
2023-04-13T07:21:22.510Z,23.45
2023-04-13T07:23:50.673Z,23.43
2023-04-13T07:26:18.654Z,23.42
2023-04-13T07:28:49.756Z,23.42
2023-04-13T07:31:17.686Z,23.42
2023-04-13T07:33:45.632Z,23.43
2023-04-13T07:36:14.999Z,23.45
2023-04-13T07:38:42.942Z,23.44
2023-04-13T07:41:10.929Z,23.45
2023-04-13T07:43:39.008Z,23.45
2023-04-13T07:46:11.901Z,23.46
2023-04-13T07:48:40.006Z,23.44
2023-04-13T07:51:08.940Z,23.46
2023-04-13T07:53:38.307Z,23.46
2023-04-13T07:56:07.121Z,23.46
2023-04-13T07:58:35.061Z,23.46
2023-04-13T08:01:03.404Z,23.46
2023-04-13T08:03:32.350Z,23.47
2023-04-13T08:06:00.345Z,23.46
2023-04-13T08:08:29.411Z,23.46
2023-04-13T08:10:58.726Z,23.45
2023-04-13T08:13:28.788Z,23.43
2023-04-13T08:15:57.286Z,23.45
2023-04-13T08:18:26.872Z,23.44
2023-04-13T08:20:55.242Z,23.47
2023-04-13T08:23:23.330Z,23.47
2023-04-13T08:26:18.505Z,23.48
2023-04-13T08:28:46.834Z,23.48
2023-04-13T08:31:14.762Z,23.48
2023-04-13T08:33:42.773Z,23.48
2023-04-13T08:36:11.015Z,23.49
2023-04-13T08:38:39.054Z,23.50
2023-04-13T08:41:07.163Z,23.52
2023-04-13T08:43:36.673Z,23.51
2023-04-13T08:46:05.028Z,23.51
2023-04-13T08:48:46.108Z,23.53
2023-04-13T08:51:20.686Z,23.56
2023-04-13T08:53:48.647Z,23.56
2023-04-13T08:56:16.808Z,23.56
2023-04-13T08:58:46.632Z,23.56
2023-04-13T09:01:15.596Z,23.56
2023-04-13T09:03:48.539Z,23.59
2023-04-13T09:06:16.589Z,23.59
2023-04-13T09:08:46.414Z,23.59
2023-04-13T09:11:14.722Z,23.59
2023-04-13T09:13:42.665Z,23.60
2023-04-13T09:16:12.051Z,23.61
2023-04-13T09:18:50.214Z,23.63
2023-04-13T09:21:18.657Z,23.63
2023-04-13T09:23:56.670Z,23.64
2023-04-13T09:26:24.640Z,23.66
2023-04-13T09:28:57.180Z,23.67
2023-04-13T09:31:26.956Z,23.66
2023-04-13T09:33:55.057Z,23.68
2023-04-13T09:36:24.218Z,23.69
2023-04-13T09:38:52.420Z,23.70
2023-04-13T09:41:29.891Z,23.73
2023-04-13T09:43:58.290Z,23.74
2023-04-13T09:46:27.893Z,23.74
2023-04-13T09:49:03.312Z,23.76
2023-04-13T09:51:41.435Z,23.76
2023-04-13T09:54:09.889Z,23.76
2023-04-13T09:56:45.289Z,23.79
2023-04-13T09:59:13.346Z,23.81
2023-04-13T10:01:42.852Z,23.84
2023-04-13T10:04:10.918Z,23.82
2023-04-13T10:06:40.127Z,23.82
2023-04-13T10:09:08.133Z,23.80
2023-04-13T10:11:38.814Z,23.81
2023-04-13T10:14:09.967Z,23.79
2023-04-13T10:16:46.582Z,23.81
2023-04-13T10:19:15.601Z,23.81
2023-04-13T10:21:45.346Z,23.83
2023-04-13T10:24:13.551Z,23.83
2023-04-13T10:26:42.270Z,23.84
2023-04-13T10:29:11.699Z,23.81
2023-04-13T10:31:39.943Z,23.77
2023-04-13T10:34:09.892Z,23.79
2023-04-13T10:36:41.868Z,23.80
2023-04-13T10:39:09.933Z,23.79
2023-04-13T10:41:38.014Z,23.81
2023-04-13T10:44:06.478Z,23.81
2023-04-13T10:46:35.140Z,23.80
2023-04-13T10:49:03.494Z,23.82
2023-04-13T10:51:42.475Z,23.82
2023-04-13T10:54:10.855Z,23.83
2023-04-13T10:56:38.825Z,23.81
2023-04-13T10:59:06.853Z,23.84
2023-04-13T11:01:35.962Z,23.86
2023-04-13T11:04:06.791Z,23.84
2023-04-13T11:06:38.543Z,23.85
2023-04-13T11:09:12.550Z,23.87
2023-04-13T11:11:43.322Z,23.88
2023-04-13T11:14:19.226Z,23.88
2023-04-13T11:16:49.201Z,23.89
2023-04-13T11:19:17.310Z,23.90
2023-04-13T11:21:46.202Z,23.91
2023-04-13T11:24:24.771Z,23.94
2023-04-13T11:26:52.685Z,23.94
2023-04-13T11:29:21.754Z,23.96
2023-04-13T11:31:49.729Z,23.96
2023-04-13T11:34:25.857Z,23.97
2023-04-13T11:37:01.615Z,23.95
2023-04-13T11:39:32.318Z,23.97
2023-04-13T11:42:06.063Z,23.98
2023-04-13T11:44:35.708Z,23.99
2023-04-13T11:47:03.807Z,24.01
2023-04-13T11:49:32.047Z,24.02
2023-04-13T11:52:00.206Z,24.04
2023-04-13T11:54:28.787Z,24.06
2023-04-13T11:56:58.200Z,24.06
2023-04-13T11:59:26.443Z,24.06
2023-04-13T12:02:02.211Z,24.07
2023-04-13T12:04:38.337Z,24.06
2023-04-13T12:07:11.556Z,24.07
2023-04-13T12:15:10.179Z,24.08
2023-04-13T12:17:49.613Z,24.10
2023-04-13T12:20:20.786Z,24.09
2023-04-13T12:22:57.529Z,24.13
2023-04-13T12:25:35.456Z,24.14
2023-04-13T12:28:06.086Z,24.16
2023-04-13T12:30:34.054Z,24.17
2023-04-13T12:33:02.138Z,24.17
2023-04-13T12:35:30.145Z,24.16
2023-04-13T12:37:58.385Z,24.15
2023-04-13T12:40:26.552Z,24.13
2023-04-13T12:42:54.518Z,24.14
2023-04-13T12:45:23.880Z,24.14
2023-04-13T12:47:52.023Z,24.13
2023-04-13T12:50:19.972Z,24.14
2023-04-13T12:52:47.854Z,24.12
2023-04-13T12:55:16.000Z,24.13
2023-04-13T12:57:44.025Z,24.13
2023-04-13T13:00:12.879Z,24.13
2023-04-13T13:02:42.401Z,24.12
2023-04-13T13:05:11.025Z,24.11
2023-04-13T13:07:38.989Z,24.12
2023-04-13T13:10:25.728Z,24.13
2023-04-13T13:12:56.819Z,24.15
2023-04-13T13:17:55.546Z,24.17
2023-04-13T13:20:26.016Z,24.19
2023-04-13T13:22:54.238Z,24.22
2023-04-13T13:25:22.789Z,24.31
2023-04-13T13:30:22.781Z,24.84
2023-04-13T13:32:50.907Z,24.69
2023-04-13T13:35:20.876Z,24.60
2023-04-13T13:37:48.852Z,24.56
2023-04-13T13:40:17.751Z,24.52
2023-04-13T13:42:51.858Z,24.50
2023-04-13T13:45:21.017Z,24.50
2023-04-13T13:47:52.456Z,24.49
2023-04-13T13:50:22.430Z,24.48
2023-04-13T13:53:02.564Z,24.52
2023-04-13T13:55:32.001Z,24.55
2023-04-13T14:01:51.189Z,24.54
2023-04-13T14:04:19.301Z,24.51
2023-04-13T14:06:49.815Z,24.53
2023-04-13T14:09:18.965Z,24.54
2023-04-13T14:11:46.911Z,24.53
2023-04-13T14:14:21.619Z,24.53
2023-04-13T14:16:50.094Z,24.50
2023-04-13T14:19:20.845Z,24.51
2023-04-13T14:21:50.540Z,24.51
2023-04-13T14:24:18.515Z,24.51
2023-04-13T14:26:46.538Z,24.53
2023-04-13T14:29:14.563Z,24.50
2023-04-13T14:31:42.642Z,24.51
2023-04-13T14:34:10.627Z,24.50
2023-04-13T14:36:39.122Z,24.50
2023-04-13T14:39:08.813Z,24.48
2023-04-13T14:41:37.008Z,24.49
2023-04-13T14:44:05.055Z,24.52
2023-04-13T14:46:33.187Z,24.53
2023-04-13T14:49:01.462Z,24.55
2023-04-13T14:51:31.905Z,24.56
2023-04-13T14:53:59.894Z,24.56
2023-04-13T14:56:30.033Z,24.51
2023-04-13T14:58:58.311Z,24.47
2023-04-13T15:01:26.684Z,24.45
2023-04-13T15:03:55.156Z,24.43
2023-04-13T15:06:25.371Z,24.43
2023-04-13T15:08:54.299Z,24.46
2023-04-13T15:11:22.365Z,24.47
2023-04-13T15:13:51.781Z,24.47
2023-04-13T15:16:19.788Z,24.51
2023-04-13T15:18:47.836Z,24.57
2023-04-13T15:21:16.120Z,24.65
2023-04-13T15:23:44.103Z,24.66
2023-04-13T15:26:17.506Z,24.69
2023-04-13T15:28:45.414Z,24.71
2023-04-13T15:31:14.802Z,24.79
2023-04-13T15:33:43.069Z,24.83
2023-04-13T15:36:13.993Z,24.84
2023-04-13T15:38:41.957Z,24.84
2023-04-13T15:41:11.183Z,24.85
2023-04-13T15:43:41.165Z,24.79
2023-04-13T15:46:09.483Z,24.72
2023-04-13T15:48:38.941Z,24.66
2023-04-13T15:51:07.045Z,24.64
2023-04-13T15:53:35.101Z,24.60
2023-04-13T15:56:03.251Z,24.54
2023-04-13T15:58:31.444Z,24.52
2023-04-13T16:01:03.638Z,24.49
2023-04-13T16:03:31.880Z,24.45
2023-04-13T16:06:01.522Z,24.44
2023-04-13T16:08:30.038Z,24.41
2023-04-13T16:10:58.015Z,24.39
2023-04-13T16:13:37.568Z,24.36
2023-04-13T16:16:15.031Z,24.34
2023-04-13T16:18:43.232Z,24.33
2023-04-13T16:21:13.320Z,24.29
2023-04-13T16:23:41.330Z,24.29
2023-04-13T16:26:09.295Z,24.29
2023-04-13T16:28:37.374Z,24.27
2023-04-13T16:31:05.747Z,24.25
2023-04-13T16:33:33.773Z,24.21
2023-04-13T16:36:01.779Z,24.22
2023-04-13T16:38:31.332Z,24.20
2023-04-13T16:40:59.330Z,24.19
2023-04-13T16:43:27.473Z,24.16
2023-04-13T16:45:55.766Z,24.15
2023-04-13T16:48:24.190Z,24.14
2023-04-13T16:50:59.164Z,24.13
2023-04-13T16:53:27.826Z,24.11
2023-04-13T16:55:57.877Z,24.12
2023-04-13T16:58:25.840Z,24.09
2023-04-13T17:00:54.004Z,24.09
2023-04-13T17:03:22.330Z,24.08
2023-04-13T17:05:50.838Z,24.09
2023-04-13T17:08:18.850Z,24.06
2023-04-13T17:10:47.503Z,24.06
2023-04-13T17:13:16.765Z,24.05
2023-04-13T17:15:45.053Z,24.05
2023-04-13T17:18:13.333Z,24.03
2023-04-13T17:20:41.361Z,24.02
2023-04-13T17:23:09.413Z,24.01
2023-04-13T17:25:41.543Z,24.00
2023-04-13T17:28:16.894Z,23.99
2023-04-13T17:30:44.911Z,23.96
2023-04-13T17:33:12.970Z,23.96
2023-04-13T17:35:40.990Z,23.95
2023-04-13T17:38:08.919Z,23.94
2023-04-13T17:40:36.914Z,23.91
2023-04-13T17:43:05.710Z,23.90
2023-04-13T17:45:35.101Z,23.89
2023-04-13T17:48:03.434Z,23.89
2023-04-13T17:50:32.535Z,23.87
2023-04-13T17:53:04.141Z,23.86
2023-04-13T17:55:33.351Z,23.85
2023-04-13T17:58:01.280Z,23.84
2023-04-13T18:00:29.394Z,23.84
2023-04-13T18:03:05.370Z,23.82
2023-04-13T18:05:33.808Z,23.81
2023-04-13T18:08:01.789Z,23.80
2023-04-13T18:10:29.839Z,23.80
2023-04-13T18:13:00.016Z,23.80
2023-04-13T18:15:28.169Z,23.78
2023-04-13T18:17:56.381Z,23.79
2023-04-13T18:20:26.384Z,23.78
2023-04-13T18:22:54.344Z,23.76
2023-04-13T18:25:22.266Z,23.76
2023-04-13T18:28:03.432Z,23.77
2023-04-13T18:30:31.371Z,23.73
2023-04-13T18:32:59.485Z,23.73
2023-04-13T18:35:28.853Z,23.73
2023-04-13T18:37:57.083Z,23.72
2023-04-13T18:40:25.243Z,23.70
2023-04-13T18:43:24.082Z,23.69
2023-04-13T18:45:52.018Z,23.69
2023-04-13T18:48:20.017Z,23.67
2023-04-13T18:50:49.492Z,23.66
2023-04-13T18:53:17.919Z,23.66
2023-04-13T18:55:49.276Z,23.65
2023-04-13T18:58:17.291Z,23.64
2023-04-13T19:00:45.142Z,23.63
2023-04-13T19:03:13.380Z,23.62
2023-04-13T19:05:41.582Z,23.62
2023-04-13T19:08:13.804Z,23.60
2023-04-13T19:10:42.665Z,23.60
2023-04-13T19:13:19.548Z,23.60
2023-04-13T19:15:47.545Z,23.60
2023-04-13T19:18:15.497Z,23.59
2023-04-13T19:20:43.437Z,23.58
2023-04-13T19:23:12.973Z,23.58
2023-04-13T19:25:41.114Z,23.58
2023-04-13T19:28:09.119Z,23.56
2023-04-13T19:30:37.096Z,23.57
2023-04-13T19:33:05.780Z,23.56
2023-04-13T19:35:34.061Z,23.56
2023-04-13T19:38:02.066Z,23.54
2023-04-13T19:40:31.616Z,23.53
2023-04-13T19:45:56.275Z,23.51
2023-04-13T19:48:24.397Z,23.51
2023-04-13T19:50:52.356Z,23.50
2023-04-13T19:53:20.301Z,23.49
2023-04-13T19:55:51.256Z,23.48
2023-04-13T19:58:25.567Z,23.47
2023-04-13T20:00:54.480Z,23.46
2023-04-13T20:03:22.737Z,23.45
2023-04-13T20:05:50.859Z,23.44
2023-04-13T20:08:18.868Z,23.43
2023-04-13T20:10:46.819Z,23.44
2023-04-13T20:13:16.334Z,23.43
2023-04-13T20:15:44.436Z,23.42
2023-04-13T20:18:12.510Z,23.41
2023-04-13T20:20:42.451Z,23.42
2023-04-13T20:23:10.628Z,23.43
2023-04-13T20:25:38.659Z,23.42
2023-04-13T20:28:06.757Z,23.41
2023-04-13T20:30:36.113Z,23.41
2023-04-13T20:33:06.370Z,23.40
2023-04-13T20:35:35.176Z,23.40
2023-04-13T20:38:04.882Z,23.39
2023-04-13T20:40:36.341Z,23.37
2023-04-13T20:43:06.364Z,23.37
2023-04-13T20:45:36.690Z,23.37
2023-04-13T20:50:35.889Z,23.36
2023-04-13T20:53:05.048Z,23.35
2023-04-13T20:55:33.375Z,23.32
2023-04-13T20:58:01.744Z,23.33
2023-04-13T21:00:29.756Z,23.32
2023-04-13T21:03:00.179Z,23.32
2023-04-13T21:05:28.328Z,23.31
2023-04-13T21:07:57.192Z,23.30
2023-04-13T21:10:25.591Z,23.30
2023-04-13T21:12:56.074Z,23.30
2023-04-13T21:15:24.183Z,23.28
2023-04-13T21:17:52.596Z,23.28
2023-04-13T21:20:22.407Z,23.27
2023-04-13T21:22:50.354Z,23.27
2023-04-13T21:25:18.548Z,23.29
2023-04-13T21:27:46.449Z,23.28
2023-04-13T21:30:14.871Z,23.29
2023-04-13T21:32:42.974Z,23.29
2023-04-13T21:35:11.733Z,23.29
2023-04-13T21:37:41.236Z,23.29
2023-04-13T21:40:09.777Z,23.29
2023-04-13T21:42:38.136Z,23.29
2023-04-13T21:45:06.780Z,23.28
2023-04-13T21:47:35.212Z,23.29
2023-04-13T21:50:03.208Z,23.28
2023-04-13T21:52:31.348Z,23.26
2023-04-13T21:55:01.206Z,23.26
2023-04-13T21:57:29.209Z,23.27
2023-04-13T21:59:57.406Z,23.25
2023-04-13T22:02:25.646Z,23.26
2023-04-13T22:04:53.893Z,23.22
2023-04-13T22:07:28.617Z,23.26
2023-04-13T22:10:09.852Z,23.27
2023-04-13T22:12:40.841Z,23.26
2023-04-13T22:15:12.707Z,23.25
2023-04-13T22:17:41.111Z,23.26
2023-04-13T22:20:10.110Z,23.26
2023-04-13T22:22:38.090Z,23.25
2023-04-13T22:25:06.919Z,23.26
2023-04-13T22:27:38.905Z,23.26
2023-04-13T22:30:08.294Z,23.26
2023-04-13T22:32:36.337Z,23.26
2023-04-13T22:35:04.424Z,23.27
2023-04-13T22:37:34.093Z,23.26
2023-04-13T22:40:02.430Z,23.27
2023-04-13T22:42:30.710Z,23.27
2023-04-13T22:45:00.203Z,23.27
2023-04-13T22:47:28.191Z,23.27
2023-04-13T22:49:56.237Z,23.26
2023-04-13T22:52:24.154Z,23.25
2023-04-13T22:54:52.108Z,23.25
2023-04-13T22:57:20.082Z,23.24
2023-04-13T22:59:48.265Z,23.24
2023-04-13T23:02:17.666Z,23.22
2023-04-13T23:04:46.100Z,23.22
2023-04-13T23:07:14.184Z,23.23
2023-04-13T23:09:42.264Z,23.22
2023-04-13T23:12:10.260Z,23.22
2023-04-13T23:14:38.214Z,23.20
2023-04-13T23:17:06.257Z,23.18
2023-04-13T23:19:35.727Z,23.19
2023-04-13T23:22:03.670Z,23.18
2023-04-13T23:24:31.598Z,23.18
2023-04-13T23:26:59.671Z,23.17
2023-04-13T23:29:27.646Z,23.17
2023-04-13T23:31:56.557Z,23.17
2023-04-13T23:34:24.606Z,23.18
2023-04-13T23:36:53.985Z,23.17
2023-04-13T23:39:23.160Z,23.18
2023-04-13T23:44:19.131Z,23.18
2023-04-13T23:46:47.167Z,23.17
2023-04-13T23:49:15.098Z,23.17
2023-04-13T23:51:43.660Z,23.17
2023-04-13T23:54:13.047Z,23.15
2023-04-13T23:56:41.312Z,23.15
2023-04-13T23:59:09.261Z,23.15
